createdAt,value
2023-09-03T00:00:48.098Z,95.48
2023-09-03T00:03:15.524Z,95.34
2023-09-03T00:05:50.578Z,94.93
2023-09-03T00:08:18.288Z,95.61
2023-09-03T00:10:49.502Z,94.63
2023-09-03T00:13:16.653Z,95.00
2023-09-03T00:15:43.795Z,94.90
2023-09-03T00:18:15.728Z,95.89
2023-09-03T00:20:55.666Z,95.35
2023-09-03T00:23:22.765Z,95.53
2023-09-03T00:25:49.951Z,94.78
2023-09-03T00:28:17.068Z,95.84
2023-09-03T00:30:44.227Z,95.61
2023-09-03T00:33:11.355Z,95.62
2023-09-03T00:35:40.332Z,95.48
2023-09-03T00:38:07.368Z,96.77
2023-09-03T00:40:40.496Z,97.55
2023-09-03T00:43:07.517Z,97.35
2023-09-03T00:45:34.886Z,97.37
2023-09-03T00:48:02.426Z,97.57
2023-09-03T00:50:31.095Z,98.45
2023-09-03T00:52:58.240Z,98.22
2023-09-03T00:55:25.328Z,98.10
2023-09-03T00:57:52.502Z,98.58
2023-09-03T01:00:19.807Z,98.91
2023-09-03T01:02:48.305Z,98.65
2023-09-03T01:05:15.865Z,98.68
2023-09-03T01:07:42.945Z,98.37
2023-09-03T01:10:10.232Z,98.27
2023-09-03T01:12:48.012Z,98.44
2023-09-03T01:15:22.780Z,99.34
2023-09-03T01:17:59.892Z,98.72
2023-09-03T01:21:07.336Z,98.16
2023-09-03T01:23:43.707Z,98.39
2023-09-03T01:26:47.829Z,99.40
2023-09-03T01:29:17.540Z,99.71
2023-09-03T01:31:45.711Z,99.20
2023-09-03T01:34:14.073Z,99.00
2023-09-03T01:36:41.755Z,99.41
2023-09-03T01:39:08.923Z,99.63
2023-09-03T01:41:38.033Z,99.50
2023-09-03T01:44:06.539Z,98.81
2023-09-03T01:46:48.096Z,98.74
2023-09-03T01:49:25.274Z,98.54
2023-09-03T01:52:14.328Z,98.92
2023-09-03T01:54:48.582Z,98.30
2023-09-03T01:57:28.871Z,98.11
2023-09-03T01:59:59.160Z,97.42
2023-09-03T02:02:26.940Z,97.58
2023-09-03T02:04:55.988Z,97.97
2023-09-03T02:07:23.077Z,98.41
2023-09-03T02:09:50.124Z,99.54
2023-09-03T02:12:24.783Z,99.44
2023-09-03T02:14:53.768Z,99.49
2023-09-03T02:17:21.563Z,99.51
2023-09-03T02:19:53.239Z,99.08
2023-09-03T02:22:40.161Z,99.24
2023-09-03T02:25:08.220Z,99.50
2023-09-03T02:27:35.254Z,99.46
2023-09-03T02:30:02.244Z,100.00
2023-09-03T02:32:33.537Z,100.00
2023-09-03T02:35:00.886Z,100.00
2023-09-03T02:37:31.777Z,100.00
2023-09-03T02:39:58.836Z,99.77
2023-09-03T02:42:26.699Z,99.58
2023-09-03T02:44:54.218Z,99.48
2023-09-03T02:47:21.233Z,99.99
2023-09-03T02:49:48.217Z,100.00
2023-09-03T02:52:16.135Z,100.00
2023-09-03T02:54:43.179Z,100.00
2023-09-03T02:57:10.182Z,100.00
2023-09-03T02:59:37.257Z,100.00
2023-09-03T03:02:04.444Z,100.00
2023-09-03T03:04:31.540Z,100.00
2023-09-03T03:06:58.600Z,100.00
2023-09-03T03:09:25.631Z,100.00
2023-09-03T03:11:52.671Z,100.00
2023-09-03T03:14:19.956Z,100.00
2023-09-03T03:16:48.142Z,100.00
2023-09-03T03:19:17.104Z,100.00
2023-09-03T03:21:44.166Z,100.00
2023-09-03T03:24:11.459Z,100.00
2023-09-03T03:26:40.968Z,100.00
2023-09-03T03:29:13.582Z,100.00
2023-09-03T03:31:45.601Z,100.00
2023-09-03T03:34:13.678Z,100.00
2023-09-03T03:36:42.629Z,100.00
2023-09-03T03:39:09.631Z,100.00
2023-09-03T03:41:37.996Z,100.00
2023-09-03T03:44:07.667Z,100.00
2023-09-03T03:46:34.775Z,100.00
2023-09-03T03:49:01.700Z,100.00
2023-09-03T03:51:28.840Z,100.00
2023-09-03T03:53:57.191Z,100.00
2023-09-03T03:56:24.283Z,100.00
2023-09-03T03:58:51.607Z,100.00
2023-09-03T04:01:20.652Z,100.00
2023-09-03T04:03:50.318Z,100.00
2023-09-03T04:06:18.075Z,100.00
2023-09-03T04:08:45.394Z,100.00
2023-09-03T04:11:14.860Z,99.78
2023-09-03T04:13:42.649Z,99.32
2023-09-03T04:16:11.643Z,98.10
2023-09-03T04:18:39.385Z,98.51
2023-09-03T04:21:06.746Z,96.85
2023-09-03T04:23:34.796Z,96.23
2023-09-03T04:26:04.719Z,94.88
2023-09-03T04:28:33.988Z,95.87
2023-09-03T04:31:05.505Z,94.88
2023-09-03T04:33:36.419Z,94.06
2023-09-03T04:36:05.852Z,94.22
2023-09-03T04:38:35.480Z,93.75
2023-09-03T04:41:06.855Z,94.07
2023-09-03T04:44:10.843Z,94.06
2023-09-03T04:46:41.608Z,94.04
2023-09-03T04:49:09.014Z,93.35
2023-09-03T04:51:36.356Z,92.76
2023-09-03T05:00:34.418Z,91.82
2023-09-03T05:03:06.560Z,91.08
2023-09-03T05:15:04.153Z,89.86
2023-09-03T05:18:03.609Z,90.04
2023-09-03T05:20:31.357Z,88.35
2023-09-03T05:26:23.779Z,86.36
2023-09-03T05:32:15.631Z,84.12
2023-09-03T05:34:42.719Z,82.71
2023-09-03T05:37:10.034Z,80.72
2023-09-03T05:39:37.672Z,79.36
2023-09-03T05:42:04.992Z,76.78
2023-09-03T05:44:32.142Z,75.83
2023-09-03T05:46:59.465Z,74.49
2023-09-03T05:49:27.159Z,74.58
2023-09-03T05:51:54.216Z,73.58
2023-09-03T05:54:21.302Z,73.64
2023-09-03T05:56:48.478Z,72.64
2023-09-03T05:59:15.622Z,72.18
2023-09-03T06:01:42.764Z,72.69
2023-09-03T06:04:15.316Z,71.33
2023-09-03T06:06:44.263Z,69.30
2023-09-03T06:09:11.365Z,69.16
2023-09-03T06:11:38.801Z,68.66
2023-09-03T06:14:05.906Z,68.94
2023-09-03T06:16:32.977Z,69.35
2023-09-03T06:19:00.218Z,69.05
2023-09-03T06:21:28.324Z,68.44
2023-09-03T06:23:55.375Z,68.82
2023-09-03T06:26:22.546Z,67.49
2023-09-03T06:28:49.517Z,66.86
2023-09-03T06:31:16.656Z,66.77
2023-09-03T06:33:45.158Z,65.89
2023-09-03T06:36:13.238Z,65.09
2023-09-03T06:38:43.843Z,64.88
2023-09-03T06:41:11.399Z,64.22
2023-09-03T06:43:38.575Z,64.29
2023-09-03T06:46:05.610Z,64.18
2023-09-03T06:48:32.548Z,62.79
2023-09-03T06:50:59.658Z,61.85
2023-09-03T06:53:27.084Z,61.91
2023-09-03T06:55:54.119Z,60.60
2023-09-03T06:58:22.042Z,59.32
2023-09-03T07:00:51.104Z,57.62
2023-09-03T07:03:19.446Z,55.79
2023-09-03T07:05:47.167Z,54.00
2023-09-03T07:08:14.832Z,52.89
2023-09-03T07:10:41.821Z,52.38
2023-09-03T07:13:10.228Z,52.42
2023-09-03T07:15:37.852Z,51.96
2023-09-03T07:18:05.917Z,52.84
2023-09-03T07:20:33.073Z,52.41
2023-09-03T07:23:00.148Z,52.50
2023-09-03T07:25:27.172Z,52.73
2023-09-03T07:27:54.252Z,53.11
2023-09-03T07:30:21.261Z,53.43
2023-09-03T07:32:48.257Z,53.28
2023-09-03T07:35:15.756Z,52.54
2023-09-03T07:37:44.345Z,52.99
2023-09-03T07:40:12.295Z,52.86
2023-09-03T07:42:39.442Z,51.66
2023-09-03T07:45:07.188Z,51.57
2023-09-03T07:47:34.352Z,52.07
2023-09-03T07:50:02.587Z,53.27
2023-09-03T07:52:30.539Z,52.46
2023-09-03T07:54:57.653Z,52.61
2023-09-03T07:57:25.214Z,52.90
2023-09-03T07:59:53.596Z,52.23
2023-09-03T08:02:20.706Z,52.79
2023-09-03T08:04:49.185Z,52.31
2023-09-03T08:07:16.353Z,52.70
2023-09-03T08:09:43.964Z,52.86
2023-09-03T08:12:11.019Z,53.21
2023-09-03T08:14:39.217Z,52.57
2023-09-03T08:17:06.271Z,52.34
2023-09-03T08:19:33.338Z,51.50
2023-09-03T08:22:00.435Z,51.04
2023-09-03T08:24:28.482Z,50.21
2023-09-03T08:26:55.500Z,49.44
2023-09-03T08:29:22.537Z,49.73
2023-09-03T08:31:49.601Z,49.10
2023-09-03T08:34:16.767Z,47.58
2023-09-03T08:36:43.770Z,47.00
2023-09-03T08:39:10.880Z,45.42
2023-09-03T08:41:40.087Z,44.71
2023-09-03T08:44:27.269Z,43.49
2023-09-03T08:47:00.689Z,41.90
2023-09-03T08:49:32.260Z,41.23
2023-09-03T08:51:59.894Z,39.13
2023-09-03T08:54:28.284Z,39.33
2023-09-03T08:56:56.727Z,38.77
2023-09-03T08:59:23.818Z,38.80
2023-09-03T09:01:54.679Z,38.38
2023-09-03T09:04:22.973Z,37.91
2023-09-03T09:06:50.801Z,37.57
2023-09-03T09:09:18.325Z,37.08
2023-09-03T09:11:56.517Z,35.82
2023-09-03T09:14:32.611Z,34.47
2023-09-03T09:16:59.617Z,32.52
2023-09-03T09:19:26.615Z,30.64
2023-09-03T09:21:54.141Z,29.74
2023-09-03T09:24:21.111Z,29.30
2023-09-03T09:26:48.205Z,29.70
2023-09-03T09:29:15.283Z,29.26
2023-09-03T09:31:42.227Z,27.97
2023-09-03T09:34:14.391Z,28.61
2023-09-03T09:36:57.281Z,29.02
2023-09-03T09:39:26.351Z,29.05
2023-09-03T09:42:09.128Z,28.59
2023-09-03T09:44:36.223Z,28.99
2023-09-03T09:47:19.307Z,28.18
2023-09-03T09:49:49.578Z,27.75
2023-09-03T09:52:17.202Z,27.75
2023-09-03T09:54:46.244Z,26.90
2023-09-03T09:57:15.647Z,27.62
2023-09-03T09:59:44.122Z,27.61
2023-09-03T10:02:15.784Z,27.50
2023-09-03T10:04:53.710Z,26.79
2023-09-03T10:07:21.384Z,27.42
2023-09-03T10:09:48.488Z,26.40
2023-09-03T10:12:15.528Z,26.49
2023-09-03T10:14:42.876Z,26.22
2023-09-03T10:17:14.291Z,26.69
2023-09-03T10:19:48.470Z,26.05
2023-09-03T10:22:20.472Z,26.83
2023-09-03T10:24:53.681Z,26.15
2023-09-03T10:27:25.962Z,25.96
2023-09-03T10:29:56.488Z,26.05
2023-09-03T10:32:24.513Z,25.80
2023-09-03T10:34:51.727Z,25.36
2023-09-03T10:37:19.968Z,25.17
2023-09-03T10:39:47.443Z,24.38
2023-09-03T10:42:17.754Z,24.67
2023-09-03T10:44:51.662Z,24.63
2023-09-03T10:47:19.494Z,25.01
2023-09-03T10:49:48.675Z,25.05
2023-09-03T10:52:28.495Z,24.89
2023-09-03T10:55:14.634Z,24.18
2023-09-03T10:57:43.810Z,23.51
2023-09-03T11:00:14.530Z,23.21
2023-09-03T11:02:48.558Z,22.43
2023-09-03T11:05:23.718Z,22.04
2023-09-03T11:08:30.712Z,22.59
2023-09-03T11:10:58.987Z,22.05
2023-09-03T11:13:37.713Z,21.91
2023-09-03T11:16:06.236Z,21.01
2023-09-03T11:18:34.322Z,21.94
2023-09-03T11:21:02.817Z,21.86
2023-09-03T11:23:33.918Z,21.45
2023-09-03T11:26:04.822Z,21.20
2023-09-03T11:28:37.346Z,20.35
2023-09-03T11:31:05.176Z,20.55
2023-09-03T11:33:32.588Z,21.12
2023-09-03T11:36:01.431Z,22.56
2023-09-03T11:38:31.753Z,23.54
2023-09-03T11:41:00.315Z,25.14
2023-09-03T11:43:30.341Z,26.12
2023-09-03T11:45:57.710Z,26.91
2023-09-03T11:48:33.846Z,27.67
2023-09-03T11:51:13.097Z,27.87
2023-09-03T11:53:43.735Z,27.34
2023-09-03T11:56:16.335Z,26.81
2023-09-03T11:58:44.984Z,27.91
2023-09-03T12:01:14.208Z,28.23
2023-09-03T12:03:42.123Z,29.36
2023-09-03T12:06:09.428Z,30.53
2023-09-03T12:08:36.859Z,31.31
2023-09-03T12:11:03.978Z,31.79
2023-09-03T12:13:33.080Z,32.30
2023-09-03T12:16:07.898Z,32.73
2023-09-03T12:18:36.539Z,31.88
2023-09-03T12:21:07.151Z,29.86
2023-09-03T12:23:36.135Z,29.76
2023-09-03T12:26:03.877Z,30.26
2023-09-03T12:28:40.192Z,30.85
2023-09-03T12:31:08.184Z,31.15
2023-09-03T12:33:36.160Z,31.25
2023-09-03T12:36:16.799Z,30.77
2023-09-03T12:38:59.407Z,31.27
2023-09-03T12:41:29.932Z,32.18
2023-09-03T12:43:57.466Z,32.99
2023-09-03T12:46:24.849Z,33.08
2023-09-03T12:48:52.115Z,32.10
2023-09-03T12:51:19.516Z,30.37
2023-09-03T12:53:48.973Z,28.58
2023-09-03T12:56:16.462Z,27.22
2023-09-03T12:58:43.521Z,25.88
2023-09-03T13:01:13.678Z,26.49
2023-09-03T13:03:40.971Z,27.53
2023-09-03T13:06:09.702Z,28.31
2023-09-03T13:08:38.415Z,28.07
2023-09-03T13:11:05.607Z,27.38
2023-09-03T13:13:32.917Z,26.79
2023-09-03T13:16:01.572Z,27.61
2023-09-03T13:18:28.814Z,28.10
2023-09-03T13:20:56.066Z,29.88
2023-09-03T13:23:24.002Z,30.52
2023-09-03T13:25:51.249Z,30.08
2023-09-03T13:28:18.345Z,28.92
2023-09-03T13:30:57.244Z,27.04
2023-09-03T13:33:33.372Z,26.56
2023-09-03T13:36:01.280Z,25.98
2023-09-03T13:38:28.442Z,25.71
2023-09-03T13:40:55.680Z,25.80
2023-09-03T13:43:24.951Z,26.43
2023-09-03T13:45:56.351Z,26.60
2023-09-03T13:48:26.451Z,26.43
2023-09-03T13:50:55.722Z,26.45
2023-09-03T13:53:23.367Z,28.23
2023-09-03T13:55:50.664Z,28.95
2023-09-03T13:58:18.788Z,30.30
2023-09-03T14:00:46.368Z,31.45
2023-09-03T14:03:13.595Z,32.32
2023-09-03T14:05:40.810Z,33.73
2023-09-03T14:08:08.041Z,34.13
2023-09-03T14:10:35.297Z,33.78
2023-09-03T14:13:02.411Z,33.50
2023-09-03T14:15:33.041Z,34.23
2023-09-03T14:18:00.185Z,34.89
2023-09-03T14:20:27.302Z,35.14
2023-09-03T14:22:54.611Z,35.71
2023-09-03T14:25:23.257Z,35.91
2023-09-03T14:27:50.752Z,36.07
2023-09-03T14:30:17.977Z,37.37
2023-09-03T14:32:45.030Z,38.03
2023-09-03T14:35:12.161Z,38.37
2023-09-03T14:37:39.236Z,38.57
2023-09-03T14:40:07.322Z,37.28
2023-09-03T14:42:34.360Z,36.85
2023-09-03T14:45:01.381Z,37.29
2023-09-03T14:47:31.254Z,37.65
2023-09-03T14:49:58.172Z,37.57
2023-09-03T14:52:26.498Z,38.34
2023-09-03T14:54:53.587Z,39.12
2023-09-03T14:57:20.604Z,39.34
2023-09-03T14:59:47.708Z,40.26
2023-09-03T15:02:14.790Z,40.51
2023-09-03T15:04:41.848Z,42.02
2023-09-03T15:07:08.918Z,45.38
2023-09-03T15:09:35.934Z,46.66
2023-09-03T15:12:03.057Z,50.42
2023-09-03T15:14:30.047Z,50.61
2023-09-03T15:16:57.052Z,51.49
2023-09-03T15:19:24.283Z,49.69
2023-09-03T15:21:51.380Z,50.91
2023-09-03T15:24:18.419Z,52.43
2023-09-03T15:26:46.054Z,53.97
2023-09-03T15:29:13.189Z,53.30
2023-09-03T15:31:40.219Z,53.83
2023-09-03T15:34:10.050Z,53.65
2023-09-03T15:36:37.164Z,55.34
2023-09-03T15:39:04.573Z,57.59
2023-09-03T15:41:31.706Z,58.43
2023-09-03T15:44:02.375Z,57.58
2023-09-03T15:46:29.692Z,58.24
2023-09-03T15:48:56.942Z,57.44
2023-09-03T15:51:24.120Z,54.54
2023-09-03T15:53:51.147Z,52.08
2023-09-03T15:56:18.270Z,51.75
2023-09-03T15:58:45.314Z,53.93
2023-09-03T16:01:13.578Z,52.71
2023-09-03T16:03:40.677Z,51.88
2023-09-03T16:06:08.514Z,52.47
2023-09-03T16:08:35.636Z,54.63
2023-09-03T16:11:06.661Z,56.83
2023-09-03T16:13:36.202Z,59.42
2023-09-03T16:16:07.744Z,58.68
2023-09-03T16:18:35.147Z,59.86
2023-09-03T16:21:02.293Z,60.07
2023-09-03T16:23:31.655Z,60.97
2023-09-03T16:25:58.852Z,61.78
2023-09-03T16:28:26.122Z,58.35
2023-09-03T16:31:00.115Z,56.70
2023-09-03T16:33:27.801Z,59.17
2023-09-03T16:36:01.816Z,56.85
2023-09-03T16:38:29.412Z,57.18
2023-09-03T16:40:57.850Z,59.32
2023-09-03T16:43:26.047Z,57.98
2023-09-03T16:45:53.299Z,59.14
2023-09-03T16:48:20.515Z,61.59
2023-09-03T16:50:47.686Z,61.27
2023-09-03T16:53:14.713Z,62.84
2023-09-03T16:55:42.000Z,60.80
2023-09-03T16:58:09.238Z,65.67
2023-09-03T17:00:39.501Z,63.60
2023-09-03T17:03:06.856Z,64.77
2023-09-03T17:05:34.577Z,63.53
2023-09-03T17:08:01.693Z,65.43
2023-09-03T17:13:14.967Z,66.56
2023-09-03T17:15:42.806Z,66.74
2023-09-03T17:18:10.945Z,66.85
2023-09-03T17:20:42.414Z,66.94
2023-09-03T17:23:09.588Z,68.16
2023-09-03T17:25:36.861Z,68.37
2023-09-03T17:28:04.271Z,68.99
2023-09-03T17:30:32.073Z,69.40
2023-09-03T17:33:01.966Z,69.40
2023-09-03T17:35:28.988Z,66.68
2023-09-03T17:37:56.225Z,65.04
2023-09-03T17:40:23.306Z,64.54
2023-09-03T17:42:50.337Z,63.50
2023-09-03T17:45:17.654Z,62.41
2023-09-03T17:47:44.788Z,60.53
2023-09-03T17:50:14.305Z,59.88
2023-09-03T17:52:41.654Z,58.98
2023-09-03T17:55:08.949Z,58.54
2023-09-03T17:57:36.171Z,56.62
2023-09-03T18:00:04.102Z,56.93
2023-09-03T18:02:40.491Z,58.08
2023-09-03T18:05:17.461Z,57.33
2023-09-03T18:07:47.356Z,57.19
2023-09-03T18:10:17.563Z,57.97
2023-09-03T18:12:48.672Z,57.83
2023-09-03T18:15:19.250Z,58.19
2023-09-03T18:17:47.465Z,58.24
2023-09-03T18:20:23.407Z,64.03
2023-09-03T18:22:51.343Z,61.41
2023-09-03T18:25:27.670Z,64.81
2023-09-03T18:27:57.213Z,62.01
2023-09-03T18:30:25.139Z,61.16
2023-09-03T18:32:52.965Z,61.19
2023-09-03T18:35:20.380Z,62.79
2023-09-03T18:37:48.356Z,62.92
2023-09-03T18:40:15.636Z,62.42
2023-09-03T18:42:45.900Z,62.21
2023-09-03T18:45:12.943Z,62.93
2023-09-03T18:47:40.923Z,62.51
2023-09-03T18:50:09.229Z,63.36
2023-09-03T18:52:36.880Z,62.92
2023-09-03T18:55:04.685Z,62.50
2023-09-03T18:57:37.651Z,63.43
2023-09-03T19:00:08.768Z,64.13
2023-09-03T19:02:37.432Z,64.17
2023-09-03T19:05:05.312Z,65.25
2023-09-03T19:07:32.926Z,65.13
2023-09-03T19:10:02.626Z,64.56
2023-09-03T19:12:37.091Z,64.70
2023-09-03T19:15:05.207Z,64.12
2023-09-03T19:17:33.238Z,64.47
2023-09-03T19:20:03.570Z,65.32
2023-09-03T19:22:31.128Z,65.54
2023-09-03T19:25:02.481Z,65.75
2023-09-03T19:27:32.963Z,66.42
2023-09-03T19:30:03.570Z,65.55
2023-09-03T19:32:33.033Z,65.37
2023-09-03T19:35:00.355Z,65.45
2023-09-03T19:37:27.432Z,65.47
2023-09-03T19:39:54.700Z,65.88
2023-09-03T19:42:24.099Z,65.83
2023-09-03T19:44:51.291Z,65.21
2023-09-03T19:47:18.596Z,65.78
2023-09-03T19:49:45.627Z,65.62
2023-09-03T19:52:17.851Z,65.18
2023-09-03T19:54:45.076Z,62.88
2023-09-03T19:57:12.138Z,62.64
2023-09-03T19:59:39.587Z,62.68
2023-09-03T20:02:07.005Z,63.25
2023-09-03T20:04:37.119Z,63.54
2023-09-03T20:07:05.074Z,63.73
2023-09-03T20:09:32.107Z,63.95
2023-09-03T20:11:59.119Z,63.23
2023-09-03T20:14:26.168Z,62.91
2023-09-03T20:16:53.207Z,62.62
2023-09-03T20:19:20.341Z,63.18
2023-09-03T20:21:49.003Z,63.58
2023-09-03T20:24:16.682Z,66.73
2023-09-03T20:26:43.684Z,67.17
2023-09-03T20:29:13.375Z,66.05
2023-09-03T20:31:45.232Z,65.94
2023-09-03T20:34:12.827Z,66.19
2023-09-03T20:36:40.468Z,66.10
2023-09-03T20:39:08.122Z,66.43
2023-09-03T20:41:38.434Z,66.27
2023-09-03T20:44:06.167Z,66.10
2023-09-03T20:46:34.283Z,66.35
2023-09-03T20:49:04.769Z,66.06
2023-09-03T20:51:34.972Z,65.62
2023-09-03T20:54:01.972Z,65.51
2023-09-03T20:56:47.610Z,65.52
2023-09-03T20:59:14.709Z,65.66
2023-09-03T21:01:41.670Z,65.54
2023-09-03T21:04:08.787Z,65.53
2023-09-03T21:06:35.717Z,65.69
2023-09-03T21:09:04.259Z,66.15
2023-09-03T21:11:34.257Z,66.10
2023-09-03T21:14:01.265Z,66.14
2023-09-03T21:16:28.388Z,66.46
2023-09-03T21:18:55.969Z,66.33
2023-09-03T21:21:23.104Z,65.50
2023-09-03T21:23:50.968Z,65.67
2023-09-03T21:26:18.654Z,65.77
2023-09-03T21:28:46.136Z,65.47
2023-09-03T21:31:20.270Z,66.23
2023-09-03T21:33:49.042Z,68.56
2023-09-03T21:36:20.600Z,68.72
2023-09-03T21:38:48.904Z,69.18
2023-09-03T21:41:16.149Z,69.32
2023-09-03T21:43:50.113Z,69.78
2023-09-03T21:46:17.167Z,70.06
2023-09-03T21:48:44.265Z,70.89
2023-09-03T21:51:19.381Z,71.33
2023-09-03T21:53:47.286Z,71.51
2023-09-03T21:56:14.385Z,71.67
2023-09-03T21:58:41.621Z,72.84
2023-09-03T22:01:09.125Z,73.92
2023-09-03T22:03:36.181Z,74.44
2023-09-03T22:06:05.722Z,74.70
2023-09-03T22:08:33.924Z,75.36
2023-09-03T22:11:01.422Z,76.10
2023-09-03T22:13:30.580Z,77.10
2023-09-03T22:15:57.961Z,78.11
2023-09-03T22:18:25.847Z,78.26
2023-09-03T22:20:53.603Z,78.03
2023-09-03T22:23:20.602Z,77.72
2023-09-03T22:25:48.195Z,77.41
2023-09-03T22:28:15.175Z,76.78
2023-09-03T22:30:42.319Z,78.53
2023-09-03T22:33:09.321Z,78.77
2023-09-03T22:35:36.485Z,78.77
2023-09-03T22:38:03.837Z,80.09
2023-09-03T22:40:31.053Z,81.11
2023-09-03T22:42:58.040Z,82.29
2023-09-03T22:45:25.114Z,83.89
2023-09-03T22:47:52.171Z,85.23
2023-09-03T22:50:19.349Z,85.11
2023-09-03T22:52:46.410Z,84.63
2023-09-03T22:55:13.343Z,84.63
2023-09-03T22:57:40.343Z,85.15
2023-09-03T23:00:08.752Z,86.04
2023-09-03T23:02:35.866Z,86.26
2023-09-03T23:05:03.050Z,87.16
2023-09-03T23:07:31.721Z,87.57
2023-09-03T23:09:58.858Z,87.07
2023-09-03T23:12:25.982Z,87.42
2023-09-03T23:14:52.887Z,87.53
2023-09-03T23:17:19.928Z,88.04
2023-09-03T23:19:46.844Z,87.82
2023-09-03T23:22:13.828Z,87.38
2023-09-03T23:24:40.859Z,86.94
2023-09-03T23:27:07.884Z,86.47
2023-09-03T23:29:34.909Z,86.32
2023-09-03T23:32:01.899Z,86.04
2023-09-03T23:34:29.202Z,85.75
2023-09-03T23:36:56.146Z,85.27
2023-09-03T23:39:23.790Z,84.95
2023-09-03T23:41:50.830Z,84.86
2023-09-03T23:44:17.798Z,86.13
2023-09-03T23:46:46.534Z,85.48
2023-09-03T23:49:14.988Z,84.89
2023-09-03T23:51:42.005Z,85.00
2023-09-03T23:54:09.340Z,85.33
2023-09-03T23:56:36.310Z,85.24
2023-09-03T23:59:03.432Z,84.55
